createdAt,value
2023-09-11T00:01:55.271Z,96786.75
2023-09-11T00:03:58.430Z,96792.63
2023-09-11T00:06:05.907Z,96790.34
2023-09-11T00:08:07.918Z,96789.09
2023-09-11T00:10:09.958Z,96793.66
2023-09-11T00:12:11.877Z,96791.94
2023-09-11T00:14:13.482Z,96780.34
2023-09-11T00:16:15.020Z,96781.09
2023-09-11T00:18:17.040Z,96779.34
2023-09-11T00:20:18.750Z,96779.66
2023-09-11T00:22:20.374Z,96788.75
2023-09-11T00:24:21.942Z,96782.19
2023-09-11T00:26:23.557Z,96782.00
2023-09-11T00:28:27.505Z,96779.88
2023-09-11T00:30:29.306Z,96778.59
2023-09-11T00:32:31.011Z,96780.91
2023-09-11T00:34:32.662Z,96771.06
2023-09-11T00:36:34.873Z,96771.31
2023-09-11T00:38:36.479Z,96774.94
2023-09-11T00:40:38.123Z,96774.03
2023-09-11T00:42:39.828Z,96765.72
2023-09-11T00:44:41.640Z,96766.94
2023-09-11T00:46:43.473Z,96762.81
2023-09-11T00:48:45.336Z,96760.09
2023-09-11T00:50:47.926Z,96763.72
2023-09-11T00:52:50.025Z,96764.78
2023-09-11T00:54:53.404Z,96760.09
2023-09-11T00:56:55.288Z,96767.06
2023-09-11T00:58:57.369Z,96757.06
2023-09-11T01:00:59.754Z,96756.44
2023-09-11T01:03:01.367Z,96755.81
2023-09-11T01:05:08.171Z,96747.63
2023-09-11T01:07:10.304Z,96746.09
2023-09-11T01:09:11.892Z,96750.03
2023-09-11T01:11:13.538Z,96745.47
2023-09-11T01:13:15.188Z,96738.69
2023-09-11T01:15:17.685Z,96742.47
2023-09-11T01:17:31.669Z,96747.03
2023-09-11T01:19:52.133Z,96744.28
2023-09-11T01:22:00.783Z,96745.47
2023-09-11T01:24:23.946Z,96745.47
2023-09-11T01:27:04.374Z,96741.31
2023-09-11T01:29:28.044Z,96746.75
2023-09-11T01:31:33.283Z,96737.41
2023-09-11T01:33:35.377Z,96745.69
2023-09-11T01:35:37.061Z,96738.38
2023-09-11T01:37:38.763Z,96743.78
2023-09-11T01:39:40.378Z,96740.63
2023-09-11T01:41:45.719Z,96734.97
2023-09-11T01:43:49.611Z,96737.50
2023-09-11T01:45:51.238Z,96732.69
2023-09-11T01:47:54.652Z,96736.44
2023-09-11T01:49:58.387Z,96738.59
2023-09-11T01:52:02.082Z,96737.38
2023-09-11T01:54:05.011Z,96733.47
2023-09-11T01:56:07.325Z,96733.75
2023-09-11T01:58:08.919Z,96734.66
2023-09-11T02:00:12.736Z,96727.06
2023-09-11T02:02:15.464Z,96731.03
2023-09-11T02:04:17.313Z,96737.25
2023-09-11T02:06:19.100Z,96736.63
2023-09-11T02:08:20.732Z,96731.88
2023-09-11T02:10:22.751Z,96723.06
2023-09-11T02:12:24.311Z,96731.34
2023-09-11T02:14:25.998Z,96726.66
2023-09-11T02:16:27.908Z,96729.69
2023-09-11T02:18:29.639Z,96728.63
2023-09-11T02:20:31.327Z,96723.81
2023-09-11T02:22:32.923Z,96733.09
2023-09-11T02:24:34.891Z,96726.66
2023-09-11T02:26:36.793Z,96726.47
2023-09-11T02:28:39.430Z,96730.25
2023-09-11T02:30:41.152Z,96726.41
2023-09-11T02:32:42.742Z,96727.88
2023-09-11T02:34:44.505Z,96721.22
2023-09-11T02:36:46.758Z,96723.94
2023-09-11T02:38:48.444Z,96729.38
2023-09-11T02:41:02.979Z,96731.47
2023-09-11T02:43:10.312Z,96721.78
2023-09-11T02:45:12.072Z,96727.97
2023-09-11T02:47:13.643Z,96725.94
2023-09-11T02:49:15.296Z,96725.69
2023-09-11T02:51:18.414Z,96722.34
2023-09-11T02:53:21.135Z,96730.00
2023-09-11T02:55:23.169Z,96719.56
2023-09-11T02:57:24.802Z,96722.72
2023-09-11T02:59:26.493Z,96718.59
2023-09-11T03:01:28.806Z,96721.19
2023-09-11T03:03:30.882Z,96712.66
2023-09-11T03:05:33.461Z,96711.88
2023-09-11T03:07:35.466Z,96709.09
2023-09-11T03:09:37.052Z,96708.56
2023-09-11T03:11:38.684Z,96712.38
2023-09-11T03:13:40.513Z,96703.13
2023-09-11T03:15:46.746Z,96703.75
2023-09-11T03:17:50.645Z,96707.84
2023-09-11T03:19:52.646Z,96708.56
2023-09-11T03:21:56.887Z,96704.00
2023-09-11T03:23:58.697Z,96706.28
2023-09-11T03:26:00.767Z,96707.94
2023-09-11T03:28:02.926Z,96708.72
2023-09-11T03:30:05.564Z,96698.25
2023-09-11T03:32:07.889Z,96705.44
2023-09-11T03:34:10.381Z,96706.66
2023-09-11T03:36:18.478Z,96696.97
2023-09-11T03:38:20.494Z,96696.66
2023-09-11T03:40:23.896Z,96696.97
2023-09-11T03:42:25.649Z,96693.16
2023-09-11T03:44:28.322Z,96700.13
2023-09-11T03:46:30.004Z,96700.56
2023-09-11T03:48:31.763Z,96698.16
2023-09-11T03:50:33.934Z,96686.53
2023-09-11T03:52:35.657Z,96690.13
2023-09-11T03:54:37.459Z,96690.22
2023-09-11T03:56:39.336Z,96683.91
2023-09-11T03:58:45.321Z,96687.06
2023-09-11T04:00:48.809Z,96678.72
2023-09-11T04:02:50.566Z,96672.97
2023-09-11T04:04:52.798Z,96678.91
2023-09-11T04:06:54.359Z,96678.47
2023-09-11T04:08:56.224Z,96675.44
2023-09-11T04:10:57.858Z,96670.88
2023-09-11T04:12:59.957Z,96674.47
2023-09-11T04:15:01.546Z,96671.88
2023-09-11T04:17:03.557Z,96676.44
2023-09-11T04:19:07.355Z,96673.50
2023-09-11T04:21:10.973Z,96679.63
2023-09-11T04:23:13.132Z,96674.91
2023-09-11T04:25:14.742Z,96676.56
2023-09-11T04:27:16.330Z,96683.22
2023-09-11T04:29:18.532Z,96678.50
2023-09-11T04:31:20.070Z,96681.66
2023-09-11T04:33:22.136Z,96675.59
2023-09-11T04:35:25.072Z,96683.44
2023-09-11T04:37:27.745Z,96679.50
2023-09-11T04:39:29.382Z,96684.63
2023-09-11T04:41:31.389Z,96678.75
2023-09-11T04:43:33.017Z,96676.16
2023-09-11T04:45:36.203Z,96676.44
2023-09-11T04:47:38.890Z,96685.81
2023-09-11T04:49:40.778Z,96683.09
2023-09-11T04:51:42.907Z,96677.66
2023-09-11T04:53:44.522Z,96679.16
2023-09-11T04:55:48.012Z,96683.09
2023-09-11T04:57:51.224Z,96681.25
2023-09-11T04:59:52.889Z,96680.94
2023-09-11T05:01:54.543Z,96686.69
2023-09-11T05:03:56.343Z,96687.13
2023-09-11T05:05:58.225Z,96690.19
2023-09-11T05:08:00.293Z,96685.06
2023-09-11T05:10:02.775Z,96682.34
2023-09-11T05:12:05.338Z,96689.63
2023-09-11T05:14:07.143Z,96684.41
2023-09-11T05:16:08.753Z,96686.38
2023-09-11T05:18:12.250Z,96697.34
2023-09-11T05:20:14.118Z,96691.25
2023-09-11T05:22:15.645Z,96699.75
2023-09-11T05:24:17.181Z,96697.47
2023-09-11T05:26:18.705Z,96699.19
2023-09-11T05:28:20.246Z,96702.13
2023-09-11T05:30:22.904Z,96697.31
2023-09-11T05:32:26.241Z,96692.84
2023-09-11T05:34:27.866Z,96698.13
2023-09-11T05:36:29.420Z,96697.25
2023-09-11T05:38:30.975Z,96700.38
2023-09-11T05:40:32.512Z,96701.00
2023-09-11T05:42:54.039Z,96701.81
2023-09-11T05:45:15.664Z,96706.59
2023-09-11T05:47:39.647Z,96714.69
2023-09-11T05:50:02.175Z,96719.78
2023-09-11T05:52:04.435Z,96723.00
2023-09-11T05:54:06.609Z,96712.19
2023-09-11T05:56:08.400Z,96714.97
2023-09-11T05:58:09.981Z,96718.06
2023-09-11T06:00:13.596Z,96716.91
2023-09-11T06:02:15.408Z,96726.22
2023-09-11T06:04:17.272Z,96711.81
2023-09-11T06:06:18.877Z,96717.34
2023-09-11T06:08:20.376Z,96720.25
2023-09-11T06:10:22.068Z,96721.03
2023-09-11T06:12:24.349Z,96719.84
2023-09-11T06:14:26.151Z,96722.81
2023-09-11T06:16:27.856Z,96718.91
2023-09-11T06:18:29.677Z,96716.63
2023-09-11T06:20:31.439Z,96716.19
2023-09-11T06:22:33.241Z,96712.06
2023-09-11T06:24:34.772Z,96717.22
2023-09-11T06:26:36.310Z,96712.69
2023-09-11T06:28:38.198Z,96717.78
2023-09-11T06:30:40.685Z,96719.88
2023-09-11T06:32:43.149Z,96714.97
2023-09-11T06:34:44.939Z,96719.31
2023-09-11T06:36:47.309Z,96717.88
2023-09-11T06:38:48.917Z,96716.31
2023-09-11T06:40:50.748Z,96713.66
2023-09-11T06:42:52.400Z,96726.78
2023-09-11T06:44:55.089Z,96719.00
2023-09-11T06:46:56.687Z,96724.91
2023-09-11T06:48:58.275Z,96726.50
2023-09-11T06:51:00.299Z,96724.69
2023-09-11T06:53:02.014Z,96724.88
2023-09-11T06:55:03.961Z,96727.31
2023-09-11T06:57:05.916Z,96718.56
2023-09-11T06:59:07.797Z,96724.81
2023-09-11T07:01:09.596Z,96729.09
2023-09-11T07:03:11.354Z,96729.81
2023-09-11T07:05:12.992Z,96725.56
2023-09-11T07:07:14.965Z,96730.06
2023-09-11T07:09:16.697Z,96726.00
2023-09-11T07:11:18.390Z,96727.69
2023-09-11T07:13:20.050Z,96725.31
2023-09-11T07:15:21.613Z,96732.38
2023-09-11T07:17:23.214Z,96731.22
2023-09-11T07:19:24.836Z,96726.31
2023-09-11T07:21:26.434Z,96728.16
2023-09-11T07:23:30.314Z,96734.03
2023-09-11T07:25:31.923Z,96730.63
2023-09-11T07:27:36.552Z,96739.75
2023-09-11T07:29:38.270Z,96734.00
2023-09-11T07:31:39.846Z,96731.84
2023-09-11T07:33:41.458Z,96731.16
2023-09-11T07:35:43.256Z,96734.44
2023-09-11T07:37:44.822Z,96731.19
2023-09-11T07:39:46.404Z,96732.50
2023-09-11T07:41:49.128Z,96731.03
2023-09-11T07:43:51.137Z,96739.84
2023-09-11T07:45:52.950Z,96736.59
2023-09-11T07:47:55.682Z,96742.84
2023-09-11T07:49:57.273Z,96743.34
2023-09-11T07:51:59.075Z,96743.31
2023-09-11T07:54:01.245Z,96748.88
2023-09-11T07:56:09.887Z,96744.53
2023-09-11T07:58:11.454Z,96739.22
2023-09-11T08:00:13.921Z,96742.69
2023-09-11T08:02:15.646Z,96745.13
2023-09-11T08:04:17.391Z,96742.50
2023-09-11T08:06:20.079Z,96739.69
2023-09-11T08:08:21.681Z,96750.41
2023-09-11T08:10:23.835Z,96745.28
2023-09-11T08:12:26.161Z,96741.41
2023-09-11T08:14:27.985Z,96744.38
2023-09-11T08:16:30.341Z,96741.50
2023-09-11T08:18:32.028Z,96734.63
2023-09-11T08:20:34.159Z,96730.00
2023-09-11T08:22:35.837Z,96742.78
2023-09-11T08:24:38.016Z,96742.91
2023-09-11T08:26:39.775Z,96738.72
2023-09-11T08:28:41.490Z,96748.94
2023-09-11T08:30:43.236Z,96743.81
2023-09-11T08:32:44.860Z,96746.41
2023-09-11T08:34:46.485Z,96749.19
2023-09-11T08:36:48.573Z,96747.25
2023-09-11T08:38:50.153Z,96745.00
2023-09-11T08:40:51.869Z,96745.03
2023-09-11T08:42:53.586Z,96738.97
2023-09-11T08:44:55.111Z,96738.50
2023-09-11T08:47:00.440Z,96739.47
2023-09-11T08:49:03.763Z,96734.91
2023-09-11T08:51:11.795Z,96734.69
2023-09-11T08:53:17.072Z,96740.59
2023-09-11T08:55:22.549Z,96744.63
2023-09-11T08:57:27.542Z,96736.41
2023-09-11T08:59:30.763Z,96734.44
2023-09-11T09:01:33.486Z,96734.28
2023-09-11T09:03:36.497Z,96734.03
2023-09-11T09:05:38.658Z,96734.41
2023-09-11T09:07:40.764Z,96731.22
2023-09-11T09:09:43.262Z,96729.81
2023-09-11T09:11:49.610Z,96741.41
2023-09-11T09:13:51.275Z,96744.66
2023-09-11T09:15:53.026Z,96741.88
2023-09-11T09:17:56.032Z,96744.81
2023-09-11T09:19:57.808Z,96743.00
2023-09-11T09:22:02.350Z,96739.81
2023-09-11T09:24:12.729Z,96737.41
2023-09-11T09:26:15.825Z,96733.47
2023-09-11T09:28:32.259Z,96734.69
2023-09-11T09:30:37.831Z,96730.31
2023-09-11T09:32:39.455Z,96728.97
2023-09-11T09:34:50.134Z,96729.78
2023-09-11T09:36:52.738Z,96728.59
2023-09-11T09:38:54.298Z,96718.69
2023-09-11T09:40:56.811Z,96728.03
2023-09-11T09:43:02.327Z,96721.88
2023-09-11T09:45:04.477Z,96728.72
2023-09-11T09:47:07.732Z,96719.94
2023-09-11T09:49:10.892Z,96729.44
2023-09-11T09:51:12.578Z,96729.47
2023-09-11T09:53:22.292Z,96732.56
2023-09-11T09:55:24.088Z,96731.75
2023-09-11T09:57:27.918Z,96735.75
2023-09-11T09:59:29.633Z,96728.53
2023-09-11T10:01:31.250Z,96728.09
2023-09-11T10:03:48.644Z,96728.88
2023-09-11T10:05:51.193Z,96718.47
2023-09-11T10:07:53.870Z,96721.06
2023-09-11T10:10:30.725Z,96714.69
2023-09-11T10:12:32.330Z,96712.47
2023-09-11T10:14:34.364Z,96726.31
2023-09-11T10:16:36.937Z,96712.00
2023-09-11T10:18:42.199Z,96719.41
2023-09-11T10:20:43.940Z,96713.84
2023-09-11T10:22:45.971Z,96705.09
2023-09-11T10:24:47.727Z,96710.94
2023-09-11T10:26:53.407Z,96715.06
2023-09-11T10:28:59.293Z,96707.53
2023-09-11T10:31:11.854Z,96699.53
2023-09-11T10:33:21.690Z,96698.44
2023-09-11T10:35:23.464Z,96694.56
2023-09-11T10:37:25.168Z,96693.78
2023-09-11T10:39:27.026Z,96698.66
2023-09-11T10:41:29.498Z,96696.63
2023-09-11T10:43:34.877Z,96687.88
2023-09-11T10:45:37.768Z,96693.91
2023-09-11T10:47:50.638Z,96690.00
2023-09-11T10:49:52.252Z,96690.38
2023-09-11T10:51:53.950Z,96694.47
2023-09-11T10:53:56.181Z,96687.22
2023-09-11T10:56:01.208Z,96685.94
2023-09-11T10:58:07.804Z,96691.72
2023-09-11T11:00:12.935Z,96694.50
2023-09-11T11:02:14.891Z,96681.25
2023-09-11T11:04:17.660Z,96680.31
2023-09-11T11:06:23.325Z,96678.13
2023-09-11T11:08:25.424Z,96679.97
2023-09-11T11:10:27.649Z,96675.94
2023-09-11T11:12:33.843Z,96680.41
2023-09-11T11:14:36.767Z,96675.59
2023-09-11T11:16:39.265Z,96679.66
2023-09-11T11:18:41.135Z,96678.16
2023-09-11T11:21:05.133Z,96676.00
2023-09-11T11:23:11.709Z,96673.75
2023-09-11T11:25:13.664Z,96675.66
2023-09-11T11:27:15.376Z,96664.84
2023-09-11T11:29:18.250Z,96671.72
2023-09-11T11:31:22.023Z,96671.16
2023-09-11T11:33:26.166Z,96663.44
2023-09-11T11:35:27.945Z,96667.63
2023-09-11T11:37:31.445Z,96672.47
2023-09-11T11:39:39.770Z,96664.75
2023-09-11T11:41:42.050Z,96665.00
2023-09-11T11:43:43.947Z,96661.72
2023-09-11T11:45:48.287Z,96657.63
2023-09-11T11:47:52.041Z,96659.25
2023-09-11T11:49:54.694Z,96658.03
2023-09-11T11:52:01.700Z,96656.53
2023-09-11T11:54:05.243Z,96663.31
2023-09-11T11:56:06.870Z,96662.22
2023-09-11T11:58:10.161Z,96662.72
2023-09-11T12:00:12.637Z,96661.03
2023-09-11T12:02:24.411Z,96652.81
2023-09-11T12:04:45.243Z,96653.59
2023-09-11T12:06:48.078Z,96652.41
2023-09-11T12:08:50.804Z,96648.66
2023-09-11T12:10:53.252Z,96649.38
2023-09-11T12:12:54.780Z,96646.09
2023-09-11T12:14:57.611Z,96649.69
2023-09-11T12:16:59.268Z,96647.09
2023-09-11T12:19:01.601Z,96645.44
2023-09-11T12:21:05.203Z,96650.59
2023-09-11T12:23:07.053Z,96645.31
2023-09-11T12:25:08.921Z,96645.97
2023-09-11T12:27:10.660Z,96650.75
2023-09-11T12:29:12.375Z,96653.53
2023-09-11T12:31:14.331Z,96655.88
2023-09-11T12:33:27.510Z,96654.81
2023-09-11T12:35:32.742Z,96642.56
2023-09-11T12:37:35.459Z,96643.53
2023-09-11T12:39:37.174Z,96641.31
2023-09-11T12:41:38.742Z,96637.22
2023-09-11T12:43:40.251Z,96638.72
2023-09-11T12:45:42.514Z,96635.78
2023-09-11T12:47:44.263Z,96632.00
2023-09-11T12:49:45.932Z,96638.19
2023-09-11T12:51:47.575Z,96625.41
2023-09-11T12:53:50.561Z,96621.97
2023-09-11T12:55:52.517Z,96623.38
2023-09-11T12:57:57.813Z,96632.94
2023-09-11T13:00:02.557Z,96628.97
2023-09-11T13:02:05.746Z,96628.50
2023-09-11T13:04:08.126Z,96635.94
2023-09-11T13:06:09.806Z,96632.56
2023-09-11T13:08:12.120Z,96630.91
2023-09-11T13:10:15.936Z,96628.06
2023-09-11T13:12:17.534Z,96623.00
2023-09-11T13:14:19.524Z,96627.00
2023-09-11T13:16:21.720Z,96617.13
2023-09-11T13:18:23.470Z,96619.50
2023-09-11T13:20:25.110Z,96604.19
2023-09-11T13:22:26.942Z,96608.53
2023-09-11T13:24:28.703Z,96606.25
2023-09-11T13:26:30.485Z,96607.34
2023-09-11T13:28:32.409Z,96607.94
2023-09-11T13:30:35.104Z,96609.19
2023-09-11T13:32:38.851Z,96600.66
2023-09-11T13:34:40.480Z,96595.84
2023-09-11T13:36:42.002Z,96604.69
2023-09-11T13:38:43.804Z,96601.94
2023-09-11T13:40:49.261Z,96597.72
2023-09-11T13:42:51.284Z,96595.38
2023-09-11T13:44:54.032Z,96591.09
2023-09-11T13:46:55.737Z,96591.28
2023-09-11T13:48:57.437Z,96595.94
2023-09-11T13:50:59.003Z,96586.47
2023-09-11T13:53:02.157Z,96579.69
2023-09-11T13:55:05.025Z,96583.34
2023-09-11T13:57:06.659Z,96584.34
2023-09-11T13:59:08.254Z,96577.25
2023-09-11T14:01:09.862Z,96583.53
2023-09-11T14:03:11.503Z,96575.88
2023-09-11T14:05:13.156Z,96571.38
2023-09-11T14:07:15.421Z,96568.56
2023-09-11T14:09:16.976Z,96574.44
2023-09-11T14:11:18.576Z,96578.06
2023-09-11T14:13:21.527Z,96572.97
2023-09-11T14:15:23.640Z,96574.91
2023-09-11T14:17:25.576Z,96568.31
2023-09-11T14:19:27.121Z,96571.72
2023-09-11T14:21:28.581Z,96571.66
2023-09-11T14:23:30.112Z,96564.78
2023-09-11T14:25:31.772Z,96567.59
2023-09-11T14:27:33.790Z,96562.56
2023-09-11T14:29:35.349Z,96562.53
2023-09-11T14:31:37.492Z,96550.72
2023-09-11T14:33:39.315Z,96557.81
2023-09-11T14:35:41.424Z,96556.16
2023-09-11T14:37:43.064Z,96563.63
2023-09-11T14:39:44.590Z,96557.97
2023-09-11T14:41:46.267Z,96557.94
2023-09-11T14:43:47.843Z,96558.38
2023-09-11T14:45:49.408Z,96553.63
2023-09-11T14:47:51.077Z,96559.00
2023-09-11T14:49:52.745Z,96552.59
2023-09-11T14:51:54.328Z,96555.78
2023-09-11T14:53:55.975Z,96555.50
2023-09-11T14:56:01.889Z,96559.28
2023-09-11T14:58:03.481Z,96556.00
2023-09-11T15:00:05.950Z,96550.09
2023-09-11T15:02:08.601Z,96548.00
2023-09-11T15:04:13.459Z,96561.97
2023-09-11T15:06:25.688Z,96552.56
2023-09-11T15:08:27.891Z,96551.50
2023-09-11T15:10:29.452Z,96552.78
2023-09-11T15:12:31.332Z,96555.94
2023-09-11T15:14:34.180Z,96545.91
2023-09-11T15:16:35.764Z,96545.22
2023-09-11T15:18:37.852Z,96548.25
2023-09-11T15:20:39.593Z,96549.69
2023-09-11T15:22:41.143Z,96550.69
2023-09-11T15:24:43.955Z,96549.16
2023-09-11T15:26:45.630Z,96553.66
2023-09-11T15:28:47.327Z,96545.63
2023-09-11T15:30:56.850Z,96547.97
2023-09-11T15:32:59.439Z,96554.50
2023-09-11T15:35:01.184Z,96547.84
2023-09-11T15:37:02.833Z,96549.25
2023-09-11T15:39:05.593Z,96544.34
2023-09-11T15:41:07.530Z,96546.00
2023-09-11T15:43:09.153Z,96548.84
2023-09-11T15:45:11.957Z,96549.00
2023-09-11T15:47:14.034Z,96540.97
2023-09-11T15:49:16.509Z,96540.63
2023-09-11T15:51:18.299Z,96541.00
2023-09-11T15:53:20.917Z,96542.53
2023-09-11T15:55:22.503Z,96546.06
2023-09-11T15:57:24.094Z,96530.06
2023-09-11T15:59:25.650Z,96530.81
2023-09-11T16:01:28.310Z,96535.09
2023-09-11T16:03:30.749Z,96533.44
2023-09-11T16:05:33.843Z,96532.44
2023-09-11T16:07:35.504Z,96538.34
2023-09-11T16:09:37.547Z,96529.47
2023-09-11T16:11:39.116Z,96538.63
2023-09-11T16:13:41.066Z,96532.41
2023-09-11T16:15:42.991Z,96531.94
2023-09-11T16:17:44.953Z,96529.81
2023-09-11T16:19:46.837Z,96533.94
2023-09-11T16:21:49.023Z,96529.38
2023-09-11T16:23:50.685Z,96527.16
2023-09-11T16:25:52.430Z,96526.69
2023-09-11T16:27:54.708Z,96529.72
2023-09-11T16:29:56.258Z,96528.25
2023-09-11T16:31:57.713Z,96527.94
2023-09-11T16:33:59.700Z,96523.28
2023-09-11T16:36:01.939Z,96530.59
2023-09-11T16:38:03.925Z,96524.66
2023-09-11T16:40:07.835Z,96527.88
2023-09-11T16:42:09.498Z,96521.34
2023-09-11T16:44:11.692Z,96530.47
2023-09-11T16:46:13.276Z,96521.00
2023-09-11T16:48:14.876Z,96529.72
2023-09-11T16:50:18.199Z,96528.38
2023-09-11T16:52:19.882Z,96526.75
2023-09-11T16:54:21.513Z,96532.22
2023-09-11T16:56:23.048Z,96532.16
2023-09-11T16:58:25.044Z,96527.50
2023-09-11T17:00:26.779Z,96525.78
2023-09-11T17:02:28.340Z,96521.75
2023-09-11T17:04:30.509Z,96522.59
2023-09-11T17:06:32.103Z,96529.16
2023-09-11T17:08:33.669Z,96533.41
2023-09-11T17:10:35.506Z,96516.22
2023-09-11T17:12:40.690Z,96520.47
2023-09-11T17:14:42.576Z,96513.94
2023-09-11T17:16:44.611Z,96512.06
2023-09-11T17:18:46.437Z,96510.69
2023-09-11T17:20:51.625Z,96511.31
2023-09-11T17:22:53.309Z,96519.59
2023-09-11T17:24:55.521Z,96513.50
2023-09-11T17:26:57.315Z,96515.13
2023-09-11T17:28:58.904Z,96514.13
2023-09-11T17:31:00.543Z,96516.84
2023-09-11T17:33:02.183Z,96521.50
2023-09-11T17:35:04.474Z,96522.69
2023-09-11T17:37:06.722Z,96522.44
2023-09-11T17:39:10.643Z,96526.88
2023-09-11T17:41:12.838Z,96517.16
2023-09-11T17:43:14.397Z,96525.16
2023-09-11T17:45:16.024Z,96517.22
2023-09-11T17:47:17.810Z,96518.09
2023-09-11T17:49:19.360Z,96514.88
2023-09-11T17:51:21.048Z,96523.66
2023-09-11T17:53:22.911Z,96520.75
2023-09-11T17:55:24.413Z,96520.84
2023-09-11T17:57:26.083Z,96512.09
2023-09-11T17:59:27.685Z,96511.97
2023-09-11T18:01:29.378Z,96510.63
2023-09-11T18:03:31.479Z,96515.38
2023-09-11T18:05:33.771Z,96520.28
2023-09-11T18:07:39.738Z,96520.84
2023-09-11T18:09:41.389Z,96522.94
2023-09-11T18:11:43.096Z,96521.50
2023-09-11T18:13:45.601Z,96518.19
2023-09-11T18:15:47.896Z,96522.47
2023-09-11T18:17:49.470Z,96524.97
2023-09-11T18:19:51.163Z,96526.13
2023-09-11T18:21:52.715Z,96520.56
2023-09-11T18:23:55.650Z,96528.16
2023-09-11T18:25:57.204Z,96517.84
2023-09-11T18:27:58.841Z,96518.88
2023-09-11T18:30:00.543Z,96522.91
2023-09-11T18:32:02.311Z,96536.72
2023-09-11T18:34:06.663Z,96538.47
2023-09-11T18:36:08.864Z,96537.72
2023-09-11T18:38:10.604Z,96540.47
2023-09-11T18:40:12.433Z,96532.97
2023-09-11T18:42:14.357Z,96541.75
2023-09-11T18:44:15.901Z,96539.94
2023-09-11T18:46:18.641Z,96539.22
2023-09-11T18:48:20.411Z,96534.41
2023-09-11T18:50:22.155Z,96538.16
2023-09-11T18:52:23.798Z,96544.72
2023-09-11T18:54:26.482Z,96542.44
2023-09-11T18:56:30.281Z,96538.91
2023-09-11T18:58:32.337Z,96546.69
2023-09-11T19:00:33.937Z,96537.63
2023-09-11T19:02:35.561Z,96533.63
2023-09-11T19:04:37.372Z,96534.25
2023-09-11T19:06:40.047Z,96535.75
2023-09-11T19:08:43.336Z,96536.19
2023-09-11T19:10:45.221Z,96540.69
2023-09-11T19:12:48.083Z,96534.44
2023-09-11T19:14:49.977Z,96537.41
2023-09-11T19:16:52.415Z,96527.66
2023-09-11T19:18:54.588Z,96522.13
2023-09-11T19:20:56.209Z,96525.34
2023-09-11T19:22:57.725Z,96527.53
2023-09-11T19:24:59.658Z,96526.22
2023-09-11T19:27:01.803Z,96531.63
2023-09-11T19:29:03.656Z,96526.38
2023-09-11T19:31:05.382Z,96537.09
2023-09-11T19:33:07.177Z,96525.75
2023-09-11T19:35:09.648Z,96528.00
2023-09-11T19:37:12.921Z,96521.91
2023-09-11T19:39:14.491Z,96531.63
2023-09-11T19:41:16.374Z,96531.59
2023-09-11T19:43:17.919Z,96529.84
2023-09-11T19:45:19.853Z,96534.84
2023-09-11T19:47:24.753Z,96528.31
2023-09-11T19:49:26.449Z,96532.31
2023-09-11T19:51:28.001Z,96528.75
2023-09-11T19:53:30.263Z,96534.94
2023-09-11T19:55:32.292Z,96534.41
2023-09-11T19:57:35.231Z,96534.75
2023-09-11T19:59:36.851Z,96532.44
2023-09-11T20:01:38.629Z,96537.53
2023-09-11T20:03:40.323Z,96535.88
2023-09-11T20:05:41.965Z,96527.97
2023-09-11T20:07:47.019Z,96535.84
2023-09-11T20:09:48.543Z,96520.72
2023-09-11T20:11:50.189Z,96517.06
2023-09-11T20:13:51.723Z,96519.97
2023-09-11T20:15:53.291Z,96520.03
2023-09-11T20:17:54.942Z,96518.16
2023-09-11T20:19:59.101Z,96518.75
2023-09-11T20:22:00.718Z,96518.22
2023-09-11T20:24:02.326Z,96517.47
2023-09-11T20:26:04.406Z,96512.72
2023-09-11T20:28:06.272Z,96516.44
2023-09-11T20:30:08.290Z,96512.84
2023-09-11T20:32:09.950Z,96516.28
2023-09-11T20:34:11.644Z,96512.00
2023-09-11T20:36:15.147Z,96510.16
2023-09-11T20:38:21.347Z,96510.34
2023-09-11T20:40:23.077Z,96505.66
2023-09-11T20:42:24.765Z,96510.03
2023-09-11T20:44:26.404Z,96510.03
2023-09-11T20:46:28.059Z,96505.31
2023-09-11T20:48:29.818Z,96504.91
2023-09-11T20:50:31.901Z,96496.91
2023-09-11T20:52:33.398Z,96498.22
2023-09-11T20:54:34.922Z,96504.19
2023-09-11T20:56:37.444Z,96498.31
2023-09-11T20:58:39.255Z,96497.03
2023-09-11T21:00:41.061Z,96493.03
2023-09-11T21:02:42.646Z,96494.53
2023-09-11T21:04:45.565Z,96490.31
2023-09-11T21:06:47.357Z,96495.31
2023-09-11T21:08:50.449Z,96491.63
2023-09-11T21:10:52.012Z,96494.53
2023-09-11T21:12:56.016Z,96493.13
2023-09-11T21:14:58.740Z,96496.44
2023-09-11T21:17:00.375Z,96496.63
2023-09-11T21:19:06.412Z,96486.53
2023-09-11T21:21:08.117Z,96489.84
2023-09-11T21:23:09.752Z,96484.38
2023-09-11T21:25:14.842Z,96488.31
2023-09-11T21:27:16.413Z,96492.19
2023-09-11T21:29:17.961Z,96492.75
2023-09-11T21:31:19.791Z,96489.09
2023-09-11T21:33:22.455Z,96491.72
2023-09-11T21:35:24.139Z,96493.22
2023-09-11T21:37:26.322Z,96489.63
2023-09-11T21:39:27.869Z,96486.31
2023-09-11T21:41:29.763Z,96483.44
2023-09-11T21:43:31.402Z,96486.28
2023-09-11T21:45:33.018Z,96483.13
2023-09-11T21:47:35.279Z,96487.69
2023-09-11T21:49:36.857Z,96480.13
2023-09-11T21:51:38.735Z,96477.88
2023-09-11T21:53:41.767Z,96481.84
2023-09-11T21:55:43.595Z,96480.97
2023-09-11T21:57:45.125Z,96478.50
2023-09-11T21:59:48.106Z,96479.53
2023-09-11T22:01:49.845Z,96476.53
2023-09-11T22:03:51.511Z,96476.56
2023-09-11T22:05:53.120Z,96483.13
2023-09-11T22:07:54.696Z,96476.31
2023-09-11T22:09:56.616Z,96481.78
2023-09-11T22:11:58.728Z,96476.94
2023-09-11T22:14:00.286Z,96473.97
2023-09-11T22:16:01.867Z,96479.44
2023-09-11T22:18:03.960Z,96477.88
2023-09-11T22:20:06.385Z,96484.28
2023-09-11T22:22:07.965Z,96470.03
2023-09-11T22:24:09.878Z,96462.75
2023-09-11T22:26:11.439Z,96467.53
2023-09-11T22:28:13.105Z,96465.28
2023-09-11T22:30:14.748Z,96466.38
2023-09-11T22:32:16.366Z,96465.63
2023-09-11T22:34:18.053Z,96475.22
2023-09-11T22:36:20.029Z,96464.00
2023-09-11T22:38:21.608Z,96464.47
2023-09-11T22:40:23.907Z,96466.31
2023-09-11T22:42:26.147Z,96466.78
2023-09-11T22:44:32.897Z,96464.69
2023-09-11T22:46:35.326Z,96458.09
2023-09-11T22:48:36.918Z,96463.94
2023-09-11T22:50:38.927Z,96464.06
2023-09-11T22:52:40.442Z,96472.09
2023-09-11T22:54:42.080Z,96465.16
2023-09-11T22:56:43.598Z,96467.31
2023-09-11T22:58:45.343Z,96466.13
2023-09-11T23:00:47.097Z,96461.84
2023-09-11T23:02:48.950Z,96467.31
2023-09-11T23:04:50.542Z,96465.78
2023-09-11T23:06:52.167Z,96467.81
2023-09-11T23:08:53.810Z,96458.56
2023-09-11T23:10:55.371Z,96458.84
2023-09-11T23:12:56.917Z,96459.97
2023-09-11T23:14:58.597Z,96467.84
2023-09-11T23:17:00.113Z,96473.28
2023-09-11T23:19:01.834Z,96467.97
2023-09-11T23:21:03.592Z,96478.63
2023-09-11T23:23:05.159Z,96476.03
2023-09-11T23:25:08.015Z,96477.66
2023-09-11T23:27:09.829Z,96481.03
2023-09-11T23:29:11.719Z,96477.84
2023-09-11T23:31:13.575Z,96474.94
2023-09-11T23:33:15.463Z,96474.47
2023-09-11T23:35:17.086Z,96480.25
2023-09-11T23:37:18.627Z,96475.53
2023-09-11T23:39:20.164Z,96473.25
2023-09-11T23:41:23.609Z,96475.22
2023-09-11T23:43:35.661Z,96472.19
2023-09-11T23:45:37.745Z,96466.28
2023-09-11T23:47:39.640Z,96468.72
2023-09-11T23:49:41.472Z,96466.72
2023-09-11T23:51:43.117Z,96468.88
2023-09-11T23:53:45.079Z,96467.81
2023-09-11T23:55:47.314Z,96469.97
2023-09-11T23:57:48.836Z,96474.06
2023-09-11T23:59:50.430Z,96476.66
